Matane, Canada
Current Conditions -  °F | °C
As of 3:00 AM on Sunday 21 Dec 2014 (Local Time) from CYYY Reporting Station
Light Snow Light Snow  
Wind Chill:   Ceiling: 1000
Heat Index: 16°   Visibility: 15mi
Dew Point: 12°   Wind: 8mph
Humidity: 86%   Direction: 160°SSE
Pressure: 30.41"   Gusts: NA
Location:  48.85°N, 67.53°W
Report Text: CYYY 210800Z 16007KT 15SM -SN OVC010 M09/M11 A3041 RMK SF8 SLP300
Loading
Personal Weather Stations






























Interactive Weather Map New forecast layout! Learn more

10-Day Weather Forecast

Advertisements
Track Severe Weather on mobile